sensor_id;sensor_type;location;lat;lon;timestamp;pressure;altitude;pressure_sealevel;temperature;humidity
59106;BME280;44891;50.204;8.132;2022-07-12T00:00:15;99060.84;;;14.42;79.53
59106;BME280;44891;50.204;8.132;2022-07-12T00:04:17;99060.19;;;14.19;81.01
59106;BME280;44891;50.204;8.132;2022-07-12T00:08:19;99062.13;;;14.23;81.80
59106;BME280;44891;50.204;8.132;2022-07-12T00:12:22;99061.50;;;14.16;81.92
59106;BME280;44891;50.204;8.132;2022-07-12T00:16:24;99047.72;;;14.14;81.85
59106;BME280;44891;50.204;8.132;2022-07-12T00:20:27;99055.38;;;13.99;82.18
59106;BME280;44891;50.204;8.132;2022-07-12T00:24:29;99062.94;;;14.07;80.72
59106;BME280;44891;50.204;8.132;2022-07-12T00:28:33;99067.44;;;14.06;80.01
59106;BME280;44891;50.204;8.132;2022-07-12T00:32:35;99063.06;;;13.83;81.94
59106;BME280;44891;50.204;8.132;2022-07-12T00:36:37;99060.88;;;13.64;81.85
59106;BME280;44891;50.204;8.132;2022-07-12T00:40:39;99053.78;;;13.81;81.54
59106;BME280;44891;50.204;8.132;2022-07-12T00:44:43;99050.75;;;13.89;81.31
59106;BME280;44891;50.204;8.132;2022-07-12T00:48:45;99048.72;;;13.63;82.44
59106;BME280;44891;50.204;8.132;2022-07-12T00:52:49;99048.06;;;13.55;82.77
59106;BME280;44891;50.204;8.132;2022-07-12T00:56:51;99048.50;;;13.36;84.04
59106;BME280;44891;50.204;8.132;2022-07-12T01:00:56;99049.16;;;13.43;84.35
59106;BME280;44891;50.204;8.132;2022-07-12T01:05:00;99047.88;;;13.45;84.83
59106;BME280;44891;50.204;8.132;2022-07-12T01:09:03;99036.13;;;13.53;81.84
59106;BME280;44891;50.204;8.132;2022-07-12T01:13:05;99039.28;;;13.38;81.69
59106;BME280;44891;50.204;8.132;2022-07-12T01:17:09;99035.69;;;13.27;82.11
59106;BME280;44891;50.204;8.132;2022-07-12T01:21:16;99044.56;;;13.38;82.46
59106;BME280;44891;50.204;8.132;2022-07-12T01:25:21;99040.47;;;13.19;83.61
59106;BME280;44891;50.204;8.132;2022-07-12T01:29:23;99034.53;;;13.12;84.16
59106;BME280;44891;50.204;8.132;2022-07-12T01:33:26;99039.16;;;13.04;84.73
59106;BME280;44891;50.204;8.132;2022-07-12T01:37:31;99040.88;;;12.99;84.65
59106;BME280;44891;50.204;8.132;2022-07-12T01:41:36;99048.78;;;12.99;85.16
59106;BME280;44891;50.204;8.132;2022-07-12T01:45:38;99042.16;;;12.96;84.46
59106;BME280;44891;50.204;8.132;2022-07-12T01:49:42;99047.31;;;12.91;84.83
59106;BME280;44891;50.204;8.132;2022-07-12T01:53:44;99047.88;;;12.93;84.96
59106;BME280;44891;50.204;8.132;2022-07-12T01:57:47;99031.47;;;13.03;82.10
59106;BME280;44891;50.204;8.132;2022-07-12T02:01:49;99038.19;;;12.82;81.52
59106;BME280;44891;50.204;8.132;2022-07-12T02:05:52;99025.66;;;12.89;81.25
59106;BME280;44891;50.204;8.132;2022-07-12T02:09:54;99024.38;;;12.92;81.04
59106;BME280;44891;50.204;8.132;2022-07-12T02:13:57;99032.84;;;12.94;82.14
59106;BME280;44891;50.204;8.132;2022-07-12T02:17:59;99028.56;;;12.76;81.90
59106;BME280;44891;50.204;8.132;2022-07-12T02:22:02;99036.59;;;12.58;82.93
59106;BME280;44891;50.204;8.132;2022-07-12T02:26:04;99033.50;;;12.49;84.04
59106;BME280;44891;50.204;8.132;2022-07-12T02:30:09;99031.81;;;12.43;85.63
59106;BME280;44891;50.204;8.132;2022-07-12T02:34:11;99035.91;;;12.50;84.61
59106;BME280;44891;50.204;8.132;2022-07-12T02:38:13;99030.84;;;12.61;82.45
59106;BME280;44891;50.204;8.132;2022-07-12T02:42:15;99030.88;;;12.49;81.87
59106;BME280;44891;50.204;8.132;2022-07-12T02:46:19;99035.00;;;12.45;81.40
59106;BME280;44891;50.204;8.132;2022-07-12T02:50:21;99041.19;;;12.39;82.41
59106;BME280;44891;50.204;8.132;2022-07-12T02:54:23;99039.91;;;12.18;84.84
59106;BME280;44891;50.204;8.132;2022-07-12T02:58:26;99055.03;;;12.22;85.08
59106;BME280;44891;50.204;8.132;2022-07-12T03:02:29;99055.50;;;12.31;84.47
59106;BME280;44891;50.204;8.132;2022-07-12T03:06:32;99055.69;;;12.06;85.87
59106;BME280;44891;50.204;8.132;2022-07-12T03:10:35;99055.25;;;12.09;85.83
59106;BME280;44891;50.204;8.132;2022-07-12T03:14:37;99056.50;;;12.18;84.39
59106;BME280;44891;50.204;8.132;2022-07-12T03:18:41;99061.44;;;12.27;82.02
59106;BME280;44891;50.204;8.132;2022-07-12T03:22:44;99064.50;;;12.00;82.95
59106;BME280;44891;50.204;8.132;2022-07-12T03:26:49;99070.25;;;12.09;81.63
59106;BME280;44891;50.204;8.132;2022-07-12T03:30:52;99068.06;;;12.06;82.30
59106;BME280;44891;50.204;8.132;2022-07-12T03:34:55;99071.38;;;12.13;83.17
59106;BME280;44891;50.204;8.132;2022-07-12T03:38:57;99063.56;;;11.94;83.40
59106;BME280;44891;50.204;8.132;2022-07-12T03:43:00;99069.53;;;11.90;83.19
59106;BME280;44891;50.204;8.132;2022-07-12T03:47:02;99064.59;;;11.93;83.51
59106;BME280;44891;50.204;8.132;2022-07-12T03:51:05;99063.47;;;12.01;83.45
59106;BME280;44891;50.204;8.132;2022-07-12T03:55:08;99067.38;;;11.98;82.94
59106;BME280;44891;50.204;8.132;2022-07-12T03:59:11;99074.47;;;11.98;82.77
59106;BME280;44891;50.204;8.132;2022-07-12T04:03:13;99074.16;;;12.18;81.56
59106;BME280;44891;50.204;8.132;2022-07-12T04:07:16;99068.19;;;12.11;82.37
59106;BME280;44891;50.204;8.132;2022-07-12T04:11:19;99073.81;;;12.26;82.00
59106;BME280;44891;50.204;8.132;2022-07-12T04:15:21;99071.88;;;12.45;80.66
59106;BME280;44891;50.204;8.132;2022-07-12T04:19:23;99067.41;;;12.45;80.48
59106;BME280;44891;50.204;8.132;2022-07-12T04:23:29;99066.25;;;12.53;80.44
59106;BME280;44891;50.204;8.132;2022-07-12T04:27:31;99055.41;;;12.61;79.96
59106;BME280;44891;50.204;8.132;2022-07-12T04:31:34;99073.38;;;12.64;80.47
59106;BME280;44891;50.204;8.132;2022-07-12T04:35:36;99077.97;;;12.57;82.43
59106;BME280;44891;50.204;8.132;2022-07-12T04:39:39;99071.66;;;12.58;83.34
59106;BME280;44891;50.204;8.132;2022-07-12T04:43:42;99084.16;;;12.63;82.85
59106;BME280;44891;50.204;8.132;2022-07-12T04:47:44;99083.06;;;12.87;82.02
59106;BME280;44891;50.204;8.132;2022-07-12T04:51:46;99080.78;;;12.91;82.34
59106;BME280;44891;50.204;8.132;2022-07-12T04:55:49;99093.25;;;13.07;81.86
59106;BME280;44891;50.204;8.132;2022-07-12T04:59:51;99109.75;;;13.26;80.82
59106;BME280;44891;50.204;8.132;2022-07-12T05:03:53;99099.41;;;13.36;80.35
59106;BME280;44891;50.204;8.132;2022-07-12T05:07:55;99104.03;;;13.57;80.24
59106;BME280;44891;50.204;8.132;2022-07-12T05:11:59;99113.00;;;13.85;79.43
59106;BME280;44891;50.204;8.132;2022-07-12T05:16:01;99113.94;;;14.07;79.07
59106;BME280;44891;50.204;8.132;2022-07-12T05:20:04;99128.56;;;14.15;80.14
59106;BME280;44891;50.204;8.132;2022-07-12T05:24:06;99126.69;;;14.27;81.10
59106;BME280;44891;50.204;8.132;2022-07-12T05:28:10;99126.13;;;14.59;80.32
59106;BME280;44891;50.204;8.132;2022-07-12T05:32:12;99124.38;;;14.48;80.67
59106;BME280;44891;50.204;8.132;2022-07-12T05:36:14;99135.09;;;14.58;80.23
59106;BME280;44891;50.204;8.132;2022-07-12T05:40:16;99134.06;;;14.76;80.93
59106;BME280;44891;50.204;8.132;2022-07-12T05:44:21;99141.22;;;14.97;82.15
59106;BME280;44891;50.204;8.132;2022-07-12T05:48:23;99133.81;;;15.16;81.89
59106;BME280;44891;50.204;8.132;2022-07-12T05:52:25;99134.38;;;15.40;81.08
59106;BME280;44891;50.204;8.132;2022-07-12T05:56:45;99139.69;;;15.62;80.78
59106;BME280;44891;50.204;8.132;2022-07-12T06:00:49;99144.94;;;15.84;80.09
59106;BME280;44891;50.204;8.132;2022-07-12T06:04:51;99150.44;;;16.04;79.47
59106;BME280;44891;50.204;8.132;2022-07-12T06:08:53;99151.69;;;16.23;79.81
59106;BME280;44891;50.204;8.132;2022-07-12T06:12:55;99156.13;;;16.45;79.93
59106;BME280;44891;50.204;8.132;2022-07-12T06:16:58;99158.19;;;16.70;79.21
59106;BME280;44891;50.204;8.132;2022-07-12T06:21:01;99152.22;;;16.90;79.76
59106;BME280;44891;50.204;8.132;2022-07-12T06:25:03;99157.88;;;17.03;79.29
59106;BME280;44891;50.204;8.132;2022-07-12T06:29:05;99164.91;;;17.25;78.39
59106;BME280;44891;50.204;8.132;2022-07-12T06:33:09;99165.78;;;17.46;77.78
59106;BME280;44891;50.204;8.132;2022-07-12T06:37:11;99170.34;;;17.60;76.87
59106;BME280;44891;50.204;8.132;2022-07-12T06:41:16;99175.94;;;17.59;77.40
59106;BME280;44891;50.204;8.132;2022-07-12T06:45:18;99175.75;;;17.76;77.63
59106;BME280;44891;50.204;8.132;2022-07-12T06:49:21;99169.69;;;18.01;76.30
59106;BME280;44891;50.204;8.132;2022-07-12T06:53:23;99153.75;;;18.01;76.49
59106;BME280;44891;50.204;8.132;2022-07-12T06:57:26;99162.56;;;18.11;75.97
59106;BME280;44891;50.204;8.132;2022-07-12T07:01:30;99154.59;;;18.27;74.63
59106;BME280;44891;50.204;8.132;2022-07-12T07:05:34;99155.66;;;18.31;74.53
59106;BME280;44891;50.204;8.132;2022-07-12T07:09:37;99158.59;;;18.50;74.69
59106;BME280;44891;50.204;8.132;2022-07-12T07:13:39;99155.91;;;18.75;74.17
59106;BME280;44891;50.204;8.132;2022-07-12T07:17:41;99155.41;;;18.68;73.72
59106;BME280;44891;50.204;8.132;2022-07-12T07:21:45;99172.44;;;18.77;73.20
59106;BME280;44891;50.204;8.132;2022-07-12T07:25:47;99175.34;;;18.91;71.76
59106;BME280;44891;50.204;8.132;2022-07-12T07:29:49;99178.81;;;18.96;71.13
59106;BME280;44891;50.204;8.132;2022-07-12T07:34:09;99179.31;;;19.09;70.03
59106;BME280;44891;50.204;8.132;2022-07-12T07:38:12;99179.00;;;19.20;69.91
59106;BME280;44891;50.204;8.132;2022-07-12T07:42:15;99170.28;;;18.94;70.40
59106;BME280;44891;50.204;8.132;2022-07-12T07:46:17;99165.91;;;19.34;68.87
59106;BME280;44891;50.204;8.132;2022-07-12T07:50:19;99160.53;;;19.54;65.52
59106;BME280;44891;50.204;8.132;2022-07-12T07:54:23;99152.53;;;19.54;65.51
59106;BME280;44891;50.204;8.132;2022-07-12T07:58:25;99147.94;;;19.70;65.32
59106;BME280;44891;50.204;8.132;2022-07-12T08:02:27;99148.78;;;20.05;61.68
59106;BME280;44891;50.204;8.132;2022-07-12T08:06:29;99146.06;;;20.15;62.06
59106;BME280;44891;50.204;8.132;2022-07-12T08:10:32;99144.63;;;20.28;62.93
59106;BME280;44891;50.204;8.132;2022-07-12T08:14:35;99142.91;;;20.47;60.31
59106;BME280;44891;50.204;8.132;2022-07-12T08:18:37;99150.59;;;20.83;59.78
59106;BME280;44891;50.204;8.132;2022-07-12T08:22:42;99155.91;;;21.36;58.15
59106;BME280;44891;50.204;8.132;2022-07-12T08:26:46;99170.81;;;21.42;56.99
59106;BME280;44891;50.204;8.132;2022-07-12T08:30:49;99181.19;;;21.20;57.00
59106;BME280;44891;50.204;8.132;2022-07-12T08:34:51;99170.03;;;21.41;56.34
59106;BME280;44891;50.204;8.132;2022-07-12T08:38:53;99164.38;;;21.43;56.48
59106;BME280;44891;50.204;8.132;2022-07-12T08:42:58;99157.25;;;21.57;56.24
59106;BME280;44891;50.204;8.132;2022-07-12T08:47:01;99151.38;;;21.36;57.52
59106;BME280;44891;50.204;8.132;2022-07-12T08:51:05;99156.06;;;21.21;57.96
59106;BME280;44891;50.204;8.132;2022-07-12T08:55:22;99152.00;;;21.28;57.70
59106;BME280;44891;50.204;8.132;2022-07-12T08:59:26;99156.94;;;21.40;56.45
59106;BME280;44891;50.204;8.132;2022-07-12T09:03:28;99159.72;;;21.91;55.66
59106;BME280;44891;50.204;8.132;2022-07-12T09:07:34;99150.47;;;22.03;54.18
59106;BME280;44891;50.204;8.132;2022-07-12T09:11:37;99156.31;;;22.42;53.89
59106;BME280;44891;50.204;8.132;2022-07-12T09:15:41;99149.56;;;22.45;51.86
59106;BME280;44891;50.204;8.132;2022-07-12T09:19:53;99154.81;;;22.69;51.92
59106;BME280;44891;50.204;8.132;2022-07-12T09:23:57;99160.06;;;22.74;51.68
59106;BME280;44891;50.204;8.132;2022-07-12T09:28:02;99156.44;;;22.51;51.53
59106;BME280;44891;50.204;8.132;2022-07-12T09:32:07;99156.50;;;22.32;52.93
59106;BME280;44891;50.204;8.132;2022-07-12T09:36:27;99154.09;;;22.12;52.97
59106;BME280;44891;50.204;8.132;2022-07-12T09:40:30;99150.91;;;22.29;52.43
59106;BME280;44891;50.204;8.132;2022-07-12T09:44:33;99155.34;;;22.01;52.73
59106;BME280;44891;50.204;8.132;2022-07-12T09:48:37;99150.47;;;22.03;53.23
59106;BME280;44891;50.204;8.132;2022-07-12T09:52:41;99145.22;;;22.16;53.06
59106;BME280;44891;50.204;8.132;2022-07-12T09:56:47;99145.31;;;22.44;52.29
59106;BME280;44891;50.204;8.132;2022-07-12T10:00:53;99137.81;;;22.46;52.44
59106;BME280;44891;50.204;8.132;2022-07-12T10:04:57;99141.00;;;22.29;51.81
59106;BME280;44891;50.204;8.132;2022-07-12T10:09:04;99152.41;;;22.53;51.44
59106;BME280;44891;50.204;8.132;2022-07-12T10:13:07;99149.91;;;22.90;51.00
59106;BME280;44891;50.204;8.132;2022-07-12T10:17:10;99159.34;;;22.87;49.44
59106;BME280;44891;50.204;8.132;2022-07-12T10:21:21;99152.19;;;23.51;48.75
59106;BME280;44891;50.204;8.132;2022-07-12T10:25:31;99157.28;;;23.39;47.07
59106;BME280;44891;50.204;8.132;2022-07-12T10:29:34;99167.50;;;23.51;49.30
59106;BME280;44891;50.204;8.132;2022-07-12T10:33:36;99160.91;;;23.57;48.71
59106;BME280;44891;50.204;8.132;2022-07-12T10:37:40;99164.97;;;23.82;48.15
59106;BME280;44891;50.204;8.132;2022-07-12T10:41:42;99159.03;;;23.71;47.98
59106;BME280;44891;50.204;8.132;2022-07-12T10:45:45;99155.66;;;24.02;48.18
59106;BME280;44891;50.204;8.132;2022-07-12T10:49:50;99159.69;;;23.77;48.05
59106;BME280;44891;50.204;8.132;2022-07-12T10:53:54;99153.22;;;24.50;47.47
59106;BME280;44891;50.204;8.132;2022-07-12T10:58:29;99156.50;;;24.47;45.08
59106;BME280;44891;50.204;8.132;2022-07-12T11:02:32;99147.09;;;24.13;45.53
59106;BME280;44891;50.204;8.132;2022-07-12T11:06:35;99145.88;;;24.64;44.32
59106;BME280;44891;50.204;8.132;2022-07-12T11:10:39;99143.56;;;24.80;44.70
59106;BME280;44891;50.204;8.132;2022-07-12T11:14:45;99147.56;;;24.91;42.58
59106;BME280;44891;50.204;8.132;2022-07-12T11:18:47;99146.75;;;24.51;44.09
59106;BME280;44891;50.204;8.132;2022-07-12T11:22:50;99135.91;;;24.96;44.14
59106;BME280;44891;50.204;8.132;2022-07-12T11:26:55;99120.56;;;25.36;43.92
59106;BME280;44891;50.204;8.132;2022-07-12T11:31:04;99116.59;;;24.94;43.46
59106;BME280;44891;50.204;8.132;2022-07-12T11:35:20;99112.34;;;25.02;42.45
59106;BME280;44891;50.204;8.132;2022-07-12T11:39:30;99108.38;;;25.30;42.36
59106;BME280;44891;50.204;8.132;2022-07-12T11:43:34;99110.50;;;25.77;40.23
59106;BME280;44891;50.204;8.132;2022-07-12T11:47:37;99099.38;;;25.43;39.69
59106;BME280;44891;50.204;8.132;2022-07-12T11:51:39;99104.75;;;25.61;40.01
59106;BME280;44891;50.204;8.132;2022-07-12T11:55:42;99088.31;;;26.06;40.46
59106;BME280;44891;50.204;8.132;2022-07-12T11:59:46;99084.03;;;26.05;39.39
59106;BME280;44891;50.204;8.132;2022-07-12T12:03:49;99089.13;;;25.97;38.07
59106;BME280;44891;50.204;8.132;2022-07-12T12:07:52;99084.50;;;25.72;39.69
59106;BME280;44891;50.204;8.132;2022-07-12T12:11:54;99076.56;;;26.19;39.71
59106;BME280;44891;50.204;8.132;2022-07-12T12:16:00;99078.41;;;26.53;39.35
59106;BME280;44891;50.204;8.132;2022-07-12T12:20:13;99079.06;;;26.33;37.81
59106;BME280;44891;50.204;8.132;2022-07-12T12:24:17;99073.19;;;26.86;37.35
59106;BME280;44891;50.204;8.132;2022-07-12T12:28:19;99075.47;;;26.75;38.01
59106;BME280;44891;50.204;8.132;2022-07-12T12:32:22;99073.06;;;27.21;37.10
59106;BME280;44891;50.204;8.132;2022-07-12T12:36:25;99065.75;;;27.21;36.72
59106;BME280;44891;50.204;8.132;2022-07-12T12:40:29;99063.66;;;26.59;37.82
59106;BME280;44891;50.204;8.132;2022-07-12T12:44:33;99057.00;;;26.95;36.95
59106;BME280;44891;50.204;8.132;2022-07-12T12:48:37;99060.63;;;27.28;35.98
59106;BME280;44891;50.204;8.132;2022-07-12T12:52:47;99056.66;;;27.47;35.38
59106;BME280;44891;50.204;8.132;2022-07-12T12:56:49;99050.81;;;27.65;35.33
59106;BME280;44891;50.204;8.132;2022-07-12T13:00:53;99054.81;;;27.38;35.92
59106;BME280;44891;50.204;8.132;2022-07-12T13:04:57;99045.88;;;27.26;36.15
59106;BME280;44891;50.204;8.132;2022-07-12T13:08:59;99041.34;;;27.59;35.53
59106;BME280;44891;50.204;8.132;2022-07-12T13:13:02;99041.91;;;27.86;34.75
59106;BME280;44891;50.204;8.132;2022-07-12T13:17:04;99043.13;;;27.76;33.62
59106;BME280;44891;50.204;8.132;2022-07-12T13:21:08;99032.81;;;27.90;34.51
59106;BME280;44891;50.204;8.132;2022-07-12T13:25:11;99031.06;;;28.40;34.42
59106;BME280;44891;50.204;8.132;2022-07-12T13:29:14;99027.59;;;28.18;33.67
59106;BME280;44891;50.204;8.132;2022-07-12T13:33:16;99030.69;;;27.63;34.21
59106;BME280;44891;50.204;8.132;2022-07-12T13:37:19;99026.09;;;28.42;33.85
59106;BME280;44891;50.204;8.132;2022-07-12T13:41:21;99027.69;;;28.55;33.45
59106;BME280;44891;50.204;8.132;2022-07-12T13:45:24;99025.09;;;28.47;32.86
59106;BME280;44891;50.204;8.132;2022-07-12T13:49:26;99025.00;;;28.80;33.08
59106;BME280;44891;50.204;8.132;2022-07-12T13:53:30;99026.34;;;28.49;31.59
59106;BME280;44891;50.204;8.132;2022-07-12T13:57:33;99031.97;;;28.56;33.41
59106;BME280;44891;50.204;8.132;2022-07-12T14:01:36;99035.13;;;28.58;33.37
59106;BME280;44891;50.204;8.132;2022-07-12T14:05:38;99025.56;;;28.73;33.16
59106;BME280;44891;50.204;8.132;2022-07-12T14:09:41;99033.91;;;28.68;32.07
59106;BME280;44891;50.204;8.132;2022-07-12T14:13:43;99021.72;;;28.86;31.13
59106;BME280;44891;50.204;8.132;2022-07-12T14:17:47;99020.25;;;28.77;31.68
59106;BME280;44891;50.204;8.132;2022-07-12T14:21:51;99018.69;;;28.76;31.43
59106;BME280;44891;50.204;8.132;2022-07-12T14:25:54;99018.03;;;29.31;31.57
59106;BME280;44891;50.204;8.132;2022-07-12T14:29:56;99001.31;;;29.13;30.92
59106;BME280;44891;50.204;8.132;2022-07-12T14:33:58;99017.41;;;29.10;31.10
59106;BME280;44891;50.204;8.132;2022-07-12T14:38:00;99011.38;;;29.41;29.81
59106;BME280;44891;50.204;8.132;2022-07-12T14:42:04;99006.16;;;29.20;29.89
59106;BME280;44891;50.204;8.132;2022-07-12T14:46:07;99001.78;;;28.79;30.50
59106;BME280;44891;50.204;8.132;2022-07-12T14:50:09;98995.13;;;29.01;31.23
59106;BME280;44891;50.204;8.132;2022-07-12T14:54:11;99000.19;;;29.14;31.11
59106;BME280;44891;50.204;8.132;2022-07-12T14:58:15;98995.22;;;29.44;31.04
59106;BME280;44891;50.204;8.132;2022-07-12T15:02:17;98987.97;;;29.33;29.84
59106;BME280;44891;50.204;8.132;2022-07-12T15:06:19;98992.09;;;29.70;29.27
59106;BME280;44891;50.204;8.132;2022-07-12T15:10:21;98979.28;;;29.27;30.23
59106;BME280;44891;50.204;8.132;2022-07-12T15:14:25;98978.47;;;29.39;29.85
59106;BME280;44891;50.204;8.132;2022-07-12T15:18:27;98972.19;;;29.50;30.89
59106;BME280;44891;50.204;8.132;2022-07-12T15:22:29;98969.22;;;29.84;30.28
59106;BME280;44891;50.204;8.132;2022-07-12T15:26:32;98968.19;;;29.72;28.93
59106;BME280;44891;50.204;8.132;2022-07-12T15:30:35;98967.84;;;29.74;29.26
59106;BME280;44891;50.204;8.132;2022-07-12T15:34:38;98962.19;;;29.51;29.95
59106;BME280;44891;50.204;8.132;2022-07-12T15:38:40;98951.53;;;28.78;30.58
59106;BME280;44891;50.204;8.132;2022-07-12T15:42:43;98966.16;;;28.89;30.65
59106;BME280;44891;50.204;8.132;2022-07-12T15:46:48;98963.13;;;29.03;30.33
59106;BME280;44891;50.204;8.132;2022-07-12T15:50:50;98963.84;;;29.28;29.48
59106;BME280;44891;50.204;8.132;2022-07-12T15:54:52;98954.28;;;29.18;29.13
59106;BME280;44891;50.204;8.132;2022-07-12T15:58:55;98958.81;;;29.42;28.73
59106;BME280;44891;50.204;8.132;2022-07-12T16:02:58;98955.44;;;29.05;29.64
59106;BME280;44891;50.204;8.132;2022-07-12T16:07:01;98940.50;;;28.95;29.49
59106;BME280;44891;50.204;8.132;2022-07-12T16:11:03;98956.00;;;29.10;29.69
59106;BME280;44891;50.204;8.132;2022-07-12T16:15:06;98964.22;;;29.14;28.94
59106;BME280;44891;50.204;8.132;2022-07-12T16:19:10;98961.69;;;28.68;30.44
59106;BME280;44891;50.204;8.132;2022-07-12T16:23:12;98936.22;;;28.82;29.80
59106;BME280;44891;50.204;8.132;2022-07-12T16:27:15;98951.75;;;28.97;30.03
59106;BME280;44891;50.204;8.132;2022-07-12T16:31:17;98961.59;;;28.40;31.33
59106;BME280;44891;50.204;8.132;2022-07-12T16:35:20;98947.94;;;28.25;31.05
59106;BME280;44891;50.204;8.132;2022-07-12T16:39:22;98948.25;;;28.11;30.88
59106;BME280;44891;50.204;8.132;2022-07-12T16:43:25;98951.38;;;27.88;31.67
59106;BME280;44891;50.204;8.132;2022-07-12T16:47:27;98927.28;;;27.83;32.36
59106;BME280;44891;50.204;8.132;2022-07-12T16:51:30;98942.03;;;27.86;32.56
59106;BME280;44891;50.204;8.132;2022-07-12T16:55:33;98939.13;;;27.91;31.42
59106;BME280;44891;50.204;8.132;2022-07-12T16:59:35;98935.25;;;27.80;32.16
59106;BME280;44891;50.204;8.132;2022-07-12T17:03:37;98941.56;;;27.72;32.97
59106;BME280;44891;50.204;8.132;2022-07-12T17:07:40;98938.50;;;27.73;32.47
59106;BME280;44891;50.204;8.132;2022-07-12T17:11:42;98937.69;;;27.60;32.67
59106;BME280;44891;50.204;8.132;2022-07-12T17:15:44;98938.78;;;27.47;33.11
59106;BME280;44891;50.204;8.132;2022-07-12T17:19:48;98947.00;;;27.30;34.25
59106;BME280;44891;50.204;8.132;2022-07-12T17:23:51;98949.97;;;27.37;34.79
59106;BME280;44891;50.204;8.132;2022-07-12T17:27:53;98943.78;;;27.36;35.03
59106;BME280;44891;50.204;8.132;2022-07-12T17:31:57;98941.41;;;27.35;34.28
59106;BME280;44891;50.204;8.132;2022-07-12T17:35:59;98943.63;;;27.33;35.69
59106;BME280;44891;50.204;8.132;2022-07-12T17:40:03;98940.91;;;27.21;36.16
59106;BME280;44891;50.204;8.132;2022-07-12T17:44:05;98951.09;;;27.15;36.33
59106;BME280;44891;50.204;8.132;2022-07-12T17:48:08;98940.16;;;27.12;36.78
59106;BME280;44891;50.204;8.132;2022-07-12T17:52:10;98945.59;;;27.03;36.90
59106;BME280;44891;50.204;8.132;2022-07-12T17:56:13;98942.97;;;26.94;37.13
59106;BME280;44891;50.204;8.132;2022-07-12T18:00:15;98940.22;;;26.82;37.81
59106;BME280;44891;50.204;8.132;2022-07-12T18:04:18;98940.97;;;26.62;38.54
59106;BME280;44891;50.204;8.132;2022-07-12T18:08:20;98940.59;;;26.34;39.08
59106;BME280;44891;50.204;8.132;2022-07-12T18:12:23;98939.31;;;26.01;39.82
59106;BME280;44891;50.204;8.132;2022-07-12T18:16:43;98948.88;;;25.73;40.61
59106;BME280;44891;50.204;8.132;2022-07-12T18:20:45;98949.06;;;25.42;41.11
59106;BME280;44891;50.204;8.132;2022-07-12T18:24:53;98950.50;;;25.39;42.80
59106;BME280;44891;50.204;8.132;2022-07-12T18:28:57;98949.38;;;25.14;43.33
59106;BME280;44891;50.204;8.132;2022-07-12T18:32:59;98944.47;;;24.90;44.26
59106;BME280;44891;50.204;8.132;2022-07-12T18:37:01;98940.94;;;24.81;44.58
59106;BME280;44891;50.204;8.132;2022-07-12T18:41:03;98942.53;;;24.82;44.70
59106;BME280;44891;50.204;8.132;2022-07-12T18:45:08;98941.13;;;24.76;45.38
59106;BME280;44891;50.204;8.132;2022-07-12T18:49:10;98948.22;;;24.72;45.77
59106;BME280;44891;50.204;8.132;2022-07-12T18:53:12;98949.84;;;24.33;46.92
59106;BME280;44891;50.204;8.132;2022-07-12T18:57:14;98944.34;;;24.16;46.83
59106;BME280;44891;50.204;8.132;2022-07-12T19:01:18;98935.63;;;24.02;47.20
59106;BME280;44891;50.204;8.132;2022-07-12T19:05:21;98949.97;;;23.97;47.78
59106;BME280;44891;50.204;8.132;2022-07-12T19:09:23;98963.53;;;23.92;47.78
59106;BME280;44891;50.204;8.132;2022-07-12T19:13:25;98962.97;;;23.81;49.17
59106;BME280;44891;50.204;8.132;2022-07-12T19:17:29;98959.34;;;23.77;48.95
59106;BME280;44891;50.204;8.132;2022-07-12T19:21:32;98964.78;;;23.50;49.62
59106;BME280;44891;50.204;8.132;2022-07-12T19:25:37;98964.34;;;23.56;50.39
59106;BME280;44891;50.204;8.132;2022-07-12T19:29:39;98963.38;;;23.30;50.71
59106;BME280;44891;50.204;8.132;2022-07-12T19:33:42;98972.09;;;22.86;52.03
59106;BME280;44891;50.204;8.132;2022-07-12T19:37:44;98979.94;;;22.82;50.98
59106;BME280;44891;50.204;8.132;2022-07-12T19:41:47;98980.03;;;22.49;52.33
59106;BME280;44891;50.204;8.132;2022-07-12T19:45:49;98984.53;;;22.40;52.44
59106;BME280;44891;50.204;8.132;2022-07-12T19:49:56;98971.34;;;21.97;52.28
59106;BME280;44891;50.204;8.132;2022-07-12T19:53:58;98987.56;;;21.87;53.40
59106;BME280;44891;50.204;8.132;2022-07-12T19:58:00;98991.28;;;21.73;53.71
59106;BME280;44891;50.204;8.132;2022-07-12T20:02:03;98988.16;;;21.33;54.05
59106;BME280;44891;50.204;8.132;2022-07-12T20:06:06;98994.19;;;21.20;54.12
59106;BME280;44891;50.204;8.132;2022-07-12T20:10:09;98979.13;;;20.86;54.96
59106;BME280;44891;50.204;8.132;2022-07-12T20:14:11;98992.78;;;21.03;54.77
59106;BME280;44891;50.204;8.132;2022-07-12T20:18:13;98995.13;;;20.67;56.03
59106;BME280;44891;50.204;8.132;2022-07-12T20:22:16;98993.59;;;20.61;55.81
59106;BME280;44891;50.204;8.132;2022-07-12T20:26:19;98990.53;;;20.49;56.39
59106;BME280;44891;50.204;8.132;2022-07-12T20:30:21;98997.50;;;20.40;56.47
59106;BME280;44891;50.204;8.132;2022-07-12T20:34:23;98992.47;;;20.14;57.62
59106;BME280;44891;50.204;8.132;2022-07-12T20:38:29;98998.66;;;20.04;57.93
59106;BME280;44891;50.204;8.132;2022-07-12T20:42:31;98998.66;;;19.75;58.53
59106;BME280;44891;50.204;8.132;2022-07-12T20:46:34;99004.94;;;19.90;58.38
59106;BME280;44891;50.204;8.132;2022-07-12T20:50:36;99002.59;;;19.83;59.18
59106;BME280;44891;50.204;8.132;2022-07-12T20:54:39;99008.59;;;19.65;59.17
59106;BME280;44891;50.204;8.132;2022-07-12T20:58:41;99004.97;;;19.40;60.22
59106;BME280;44891;50.204;8.132;2022-07-12T21:02:43;99014.47;;;19.12;60.55
59106;BME280;44891;50.204;8.132;2022-07-12T21:06:46;99016.38;;;19.01;60.32
59106;BME280;44891;50.204;8.132;2022-07-12T21:10:50;98993.09;;;18.63;61.52
59106;BME280;44891;50.204;8.132;2022-07-12T21:14:52;99005.31;;;18.74;61.95
59106;BME280;44891;50.204;8.132;2022-07-12T21:18:54;99001.84;;;18.79;61.73
59106;BME280;44891;50.204;8.132;2022-07-12T21:22:56;99011.72;;;18.63;62.44
59106;BME280;44891;50.204;8.132;2022-07-12T21:27:01;98997.38;;;18.54;62.87